Time;durP1;ratioP1;P1;durP2;ratioP2;P2;SDS_P1;SDS_P2;PMS_P1;PMS_P2;Temp;Humidity;BMP_temperature;BMP_pressure;BME280_temperature;BME280_humidity;BME280_pressure;Samples;Min_cycle;Max_cycle;Signal;HPM_P1;HPM_P2
2021/07/17 00:00:11;;;;;;;24.65;15.48;;;19.20;99.90;;;;;;5013887;28;20033;-73
2021/07/17 00:02:36;;;;;;;23.42;13.43;;;19.20;99.90;;;;;;5013713;28;20076;-73
2021/07/17 00:05:11;;;;;;;21.80;13.30;;;19.20;99.90;;;;;;5014627;28;20037;-73
2021/07/17 00:07:38;;;;;;;23.05;13.32;;;19.20;99.90;;;;;;5014915;28;20030;-73
2021/07/17 00:10:14;;;;;;;25.50;14.70;;;19.10;99.90;;;;;;5013444;28;20115;-73
2021/07/17 00:12:42;;;;;;;23.15;14.10;;;19.10;99.90;;;;;;5014512;28;20046;-73
2021/07/17 00:15:10;;;;;;;26.55;14.00;;;19.00;99.90;;;;;;5013310;28;20393;-73
2021/07/17 00:17:36;;;;;;;20.02;14.25;;;19.00;99.90;;;;;;5013761;28;20121;-73
2021/07/17 00:20:10;;;;;;;23.58;13.80;;;19.00;99.90;;;;;;4996918;28;20403;-73
2021/07/17 00:22:36;;;;;;;29.02;14.45;;;19.00;99.90;;;;;;5013647;28;20061;-73
2021/07/17 00:25:06;;;;;;;27.17;13.68;;;19.00;99.90;;;;;;5014660;28;20037;-74
2021/07/17 00:27:32;;;;;;;24.77;13.48;;;19.00;99.90;;;;;;5013303;28;20031;-73
2021/07/17 00:29:57;;;;;;;19.85;13.35;;;18.90;99.90;;;;;;5014420;28;20391;-74
2021/07/17 00:32:23;;;;;;;25.10;13.40;;;19.00;99.90;;;;;;5014534;28;20502;-71
2021/07/17 00:34:49;;;;;;;20.15;13.20;;;19.10;99.90;;;;;;5012626;28;20034;-72
2021/07/17 00:37:15;;;;;;;22.63;14.18;;;19.10;99.90;;;;;;5029895;28;20037;-72
2021/07/17 00:39:40;;;;;;;22.38;13.80;;;19.00;99.90;;;;;;5015658;28;20136;-73
2021/07/17 00:42:06;;;;;;;22.98;13.30;;;19.00;99.90;;;;;;5016043;28;20542;-73
2021/07/17 00:44:33;;;;;;;25.15;14.45;;;19.00;99.90;;;;;;5015912;28;20045;-73
2021/07/17 00:46:59;;;;;;;26.63;14.30;;;19.00;99.90;;;;;;5014122;28;20064;-73
2021/07/17 00:49:32;;;;;;;22.45;13.38;;;19.00;99.90;;;;;;5015186;28;20092;-73
2021/07/17 00:51:57;;;;;;;20.70;13.85;;;19.00;99.90;;;;;;5015923;28;20437;-73
2021/07/17 00:54:28;;;;;;;21.50;13.70;;;19.00;99.90;;;;;;5014282;28;20060;-73
2021/07/17 00:56:54;;;;;;;21.73;13.00;;;19.00;99.90;;;;;;5012588;28;20113;-73
2021/07/17 00:59:27;;;;;;;21.75;12.93;;;19.00;99.90;;;;;;5014001;28;20117;-73
2021/07/17 01:01:55;;;;;;;19.77;13.60;;;19.00;99.90;;;;;;5012440;28;20033;-73
2021/07/17 01:04:23;;;;;;;23.73;14.48;;;19.00;99.90;;;;;;5012854;28;20041;-73
2021/07/17 01:06:50;;;;;;;23.33;13.63;;;19.00;99.90;;;;;;5012713;28;20038;-73
2021/07/17 01:09:16;;;;;;;22.85;14.27;;;19.00;99.90;;;;;;4996150;28;20046;-73
2021/07/17 01:11:42;;;;;;;23.70;14.00;;;18.90;99.90;;;;;;5013296;28;20068;-74
2021/07/17 01:14:08;;;;;;;26.52;14.20;;;18.90;99.90;;;;;;5012176;28;20030;-74
2021/07/17 01:16:34;;;;;;;24.35;13.80;;;18.90;99.90;;;;;;5013467;28;20497;-74
2021/07/17 01:19:02;;;;;;;22.15;13.40;;;18.90;99.90;;;;;;5012371;28;20113;-73
2021/07/17 01:21:28;;;;;;;24.70;13.45;;;18.90;99.90;;;;;;5013528;28;20030;-72
2021/07/17 01:23:54;;;;;;;27.98;15.25;;;18.90;99.90;;;;;;5012308;28;20037;-73
2021/07/17 01:26:20;;;;;;;25.27;14.40;;;18.90;99.90;;;;;;5012096;28;20041;-73
2021/07/17 01:28:46;;;;;;;21.73;14.07;;;18.90;99.90;;;;;;5013440;28;20477;-74
2021/07/17 01:31:13;;;;;;;22.00;13.48;;;18.90;99.90;;;;;;5012154;28;20033;-74
2021/07/17 01:33:40;;;;;;;25.67;14.60;;;18.90;99.90;;;;;;5011798;28;20439;-74
2021/07/17 01:36:06;;;;;;;27.63;14.23;;;18.90;99.90;;;;;;5013248;28;20042;-74
2021/07/17 01:38:32;;;;;;;23.63;13.43;;;19.00;99.90;;;;;;5012108;28;20109;-74
2021/07/17 01:40:58;;;;;;;24.15;13.90;;;19.00;99.90;;;;;;5013401;28;20034;-74
2021/07/17 01:43:23;;;;;;;21.63;13.40;;;19.00;99.90;;;;;;5013271;28;20491;-74
2021/07/17 01:45:49;;;;;;;23.40;13.75;;;19.00;99.90;;;;;;5011287;28;20359;-73
2021/07/17 01:48:15;;;;;;;26.80;14.55;;;19.00;99.90;;;;;;5012871;28;20068;-74
2021/07/17 01:50:42;;;;;;;27.23;15.13;;;19.00;99.90;;;;;;5011734;28;20502;-74
2021/07/17 01:53:12;;;;;;;28.55;14.52;;;19.00;99.90;;;;;;5012659;28;20095;-74
2021/07/17 01:55:38;;;;;;;23.42;14.32;;;19.00;99.90;;;;;;5013023;28;20098;-74
2021/07/17 01:58:07;;;;;;;23.88;13.82;;;18.90;99.90;;;;;;5011426;28;20576;-74
2021/07/17 02:00:32;;;;;;;28.95;15.10;;;18.90;99.90;;;;;;5011597;28;20041;-73
2021/07/17 02:02:58;;;;;;;21.52;13.55;;;18.90;99.90;;;;;;5011622;28;20052;-74
2021/07/17 02:05:24;;;;;;;25.45;15.90;;;19.00;99.90;;;;;;5012905;28;20029;-74
2021/07/17 02:07:50;;;;;;;19.33;14.40;;;18.90;99.90;;;;;;5011596;28;20026;-73
2021/07/17 02:10:30;;;;;;;22.10;14.52;;;18.90;99.90;;;;;;5011223;28;20404;-74
2021/07/17 02:12:56;;;;;;;23.02;15.50;;;18.90;99.90;;;;;;5012498;28;20495;-74
2021/07/17 02:15:22;;;;;;;27.45;15.07;;;18.90;99.90;;;;;;5012773;28;20049;-73
2021/07/17 02:17:49;;;;;;;29.30;15.75;;;18.90;99.90;;;;;;5011533;28;20088;-73
2021/07/17 02:20:15;;;;;;;26.48;14.45;;;18.80;99.90;;;;;;4994785;28;20470;-73
2021/07/17 02:22:41;;;;;;;25.38;16.25;;;18.80;99.90;;;;;;5012354;28;20030;-73
2021/07/17 02:25:08;;;;;;;26.63;15.15;;;18.80;99.90;;;;;;5012569;28;20042;-73
2021/07/17 02:27:34;;;;;;;22.55;15.13;;;18.80;99.90;;;;;;5012604;28;20030;-73
2021/07/17 02:30:00;;;;;;;25.63;14.20;;;18.90;99.90;;;;;;5027407;28;20033;-73
2021/07/17 02:32:26;;;;;;;30.75;15.88;;;18.90;99.90;;;;;;5012579;28;20069;-73
2021/07/17 02:34:52;;;;;;;24.27;15.27;;;18.90;99.90;;;;;;5011463;28;20061;-73
2021/07/17 02:37:20;;;;;;;28.63;15.32;;;18.90;99.90;;;;;;5012152;28;20041;-73
2021/07/17 02:39:46;;;;;;;28.55;15.77;;;18.90;99.90;;;;;;5012067;28;20407;-73
2021/07/17 02:42:11;;;;;;;23.63;15.52;;;18.90;99.90;;;;;;5012351;28;20030;-73
2021/07/17 02:44:37;;;;;;;28.90;15.10;;;18.90;99.90;;;;;;5010989;28;20121;-73
2021/07/17 02:47:03;;;;;;;26.70;15.65;;;18.80;99.90;;;;;;5012393;28;20038;-73
2021/07/17 02:49:30;;;;;;;27.20;15.82;;;18.90;99.90;;;;;;5011196;28;20034;-73
2021/07/17 02:51:56;;;;;;;26.90;15.52;;;18.90;99.90;;;;;;5011943;28;20045;-73
2021/07/17 02:54:22;;;;;;;25.75;15.25;;;18.80;99.90;;;;;;5011993;28;20386;-73
2021/07/17 02:56:49;;;;;;;28.15;14.85;;;18.80;99.90;;;;;;5012746;28;20034;-73
2021/07/17 02:59:14;;;;;;;25.90;14.85;;;18.90;99.90;;;;;;5015857;28;20041;-73
2021/07/17 03:01:41;;;;;;;29.58;16.67;;;18.80;99.90;;;;;;5016087;28;20026;-73
2021/07/17 03:04:06;;;;;;;28.88;15.20;;;18.90;99.90;;;;;;5015680;28;20034;-74
2021/07/17 03:06:32;;;;;;;27.73;16.02;;;18.90;99.90;;;;;;5016195;28;20360;-74
2021/07/17 03:08:58;;;;;;;29.58;16.23;;;18.90;99.90;;;;;;5014758;28;20499;-73
2021/07/17 03:11:24;;;;;;;24.42;14.88;;;18.90;99.90;;;;;;5015470;28;20041;-73
2021/07/17 03:13:50;;;;;;;29.23;15.95;;;18.80;99.90;;;;;;5014874;28;20060;-73
2021/07/17 03:16:16;;;;;;;31.65;16.02;;;18.80;99.90;;;;;;5015790;28;20073;-73
2021/07/17 03:18:43;;;;;;;28.00;15.90;;;18.90;99.90;;;;;;5014361;28;20033;-74
2021/07/17 03:21:10;;;;;;;28.30;16.13;;;18.90;99.90;;;;;;5015744;28;20026;-74
2021/07/17 03:23:36;;;;;;;28.17;15.85;;;18.90;99.90;;;;;;5014710;28;20030;-73
2021/07/17 03:26:02;;;;;;;29.40;15.02;;;18.80;99.90;;;;;;5015708;28;20037;-73
2021/07/17 03:28:28;;;;;;;22.73;14.30;;;18.80;99.90;;;;;;5015766;28;20379;-73
2021/07/17 03:30:53;;;;;;;27.42;14.85;;;18.80;99.90;;;;;;5014274;28;20383;-73
2021/07/17 03:33:20;;;;;;;26.38;15.27;;;18.80;99.90;;;;;;5015302;28;20034;-73
2021/07/17 03:35:45;;;;;;;33.40;15.68;;;18.80;99.90;;;;;;5015364;28;20108;-73
2021/07/17 03:38:11;;;;;;;28.13;15.35;;;18.80;99.90;;;;;;5015020;28;20555;-73
2021/07/17 03:40:37;;;;;;;26.60;14.93;;;18.80;99.90;;;;;;5015481;28;20044;-73
2021/07/17 03:43:03;;;;;;;30.48;16.17;;;18.80;99.90;;;;;;5030455;28;20157;-73
2021/07/17 03:45:29;;;;;;;27.40;14.93;;;18.80;99.90;;;;;;4997646;28;20037;-73
2021/07/17 03:47:54;;;;;;;25.15;14.70;;;18.80;99.90;;;;;;5015136;28;20037;-72
2021/07/17 03:50:20;;;;;;;25.88;15.05;;;18.80;99.90;;;;;;5015203;28;20034;-73
2021/07/17 03:52:46;;;;;;;25.08;16.30;;;18.80;99.90;;;;;;5015272;28;20033;-73
2021/07/17 03:55:12;;;;;;;31.45;16.60;;;18.80;99.90;;;;;;5014881;28;20072;-72
2021/07/17 03:57:38;;;;;;;24.90;15.82;;;18.70;99.90;;;;;;5015088;28;20068;-74
2021/07/17 04:00:06;;;;;;;27.27;15.48;;;18.70;99.90;;;;;;5013357;28;20030;-74
2021/07/17 04:02:40;;;;;;;31.80;16.73;;;18.70;99.90;;;;;;5015162;28;20076;-73
2021/07/17 04:05:12;;;;;;;26.65;15.38;;;18.70;99.90;;;;;;4998290;28;20030;-73
2021/07/17 04:07:38;;;;;;;23.83;15.18;;;18.70;99.90;;;;;;5014024;28;20055;-73
2021/07/17 04:10:07;;;;;;;22.67;14.18;;;18.70;99.90;;;;;;5013840;28;20063;-73
2021/07/17 04:12:33;;;;;;;23.77;15.52;;;18.70;99.90;;;;;;5014579;28;20446;-73
2021/07/17 04:15:00;;;;;;;27.50;15.93;;;18.70;99.90;;;;;;5014640;28;20041;-74
2021/07/17 04:17:26;;;;;;;24.98;15.68;;;18.70;99.90;;;;;;5014428;28;20057;-73
2021/07/17 04:19:53;;;;;;;32.22;15.30;;;18.70;99.90;;;;;;5013282;28;20034;-74
2021/07/17 04:22:19;;;;;;;27.40;15.77;;;18.60;99.90;;;;;;4997113;28;20521;-73
2021/07/17 04:24:45;;;;;;;26.30;14.75;;;18.70;99.90;;;;;;5013315;28;20475;-73
2021/07/17 04:27:11;;;;;;;31.48;16.45;;;18.70;99.90;;;;;;5014139;28;20125;-73
2021/07/17 04:29:37;;;;;;;24.70;14.82;;;18.70;99.90;;;;;;5014339;28;20471;-74
2021/07/17 04:32:04;;;;;;;22.73;14.55;;;18.70;99.90;;;;;;5013141;28;20363;-73
2021/07/17 04:34:30;;;;;;;28.42;15.45;;;18.70;99.90;;;;;;5014035;28;20049;-74
2021/07/17 04:36:56;;;;;;;24.20;15.48;;;18.80;99.90;;;;;;5013096;28;20494;-73
2021/07/17 04:39:23;;;;;;;22.33;14.82;;;18.80;99.90;;;;;;5014246;28;20577;-73
2021/07/17 04:41:48;;;;;;;27.38;14.23;;;18.90;99.90;;;;;;5012969;28;20033;-73
2021/07/17 04:44:14;;;;;;;26.95;14.60;;;18.90;99.90;;;;;;5013965;28;20042;-74
2021/07/17 04:46:40;;;;;;;21.13;15.10;;;18.90;99.90;;;;;;5013872;28;20037;-74
2021/07/17 04:49:06;;;;;;;22.10;13.50;;;19.00;99.90;;;;;;5014266;28;20029;-73
2021/07/17 04:51:31;;;;;;;25.42;14.23;;;19.00;99.90;;;;;;5013760;28;20061;-73
2021/07/17 04:53:57;;;;;;;19.77;13.65;;;19.00;99.90;;;;;;5013912;28;20040;-73
2021/07/17 04:56:23;;;;;;;22.17;13.48;;;19.00;99.90;;;;;;5012461;28;20034;-74
2021/07/17 04:58:49;;;;;;;17.85;12.20;;;19.00;99.90;;;;;;5014059;28;20033;-73
2021/07/17 05:01:14;;;;;;;27.70;13.13;;;19.00;99.90;;;;;;5013630;28;20495;-73
2021/07/17 05:03:40;;;;;;;24.00;13.30;;;19.10;99.90;;;;;;5012632;28;20030;-73
2021/07/17 05:06:06;;;;;;;21.52;12.95;;;19.10;99.90;;;;;;5012647;28;20026;-73
2021/07/17 05:08:32;;;;;;;19.33;12.02;;;19.10;99.90;;;;;;5028744;28;20033;-73
2021/07/17 05:10:57;;;;;;;19.70;12.52;;;19.10;99.90;;;;;;5013913;28;20026;-73
2021/07/17 05:13:24;;;;;;;25.10;12.52;;;19.20;99.90;;;;;;5013384;28;20046;-74
2021/07/17 05:15:50;;;;;;;18.95;12.18;;;19.20;99.90;;;;;;5012226;28;20475;-73
2021/07/17 05:18:16;;;;;;;20.92;12.48;;;19.20;99.90;;;;;;5013197;28;20056;-73
2021/07/17 05:20:43;;;;;;;21.48;12.38;;;19.20;99.90;;;;;;4995810;28;20068;-74
2021/07/17 05:23:10;;;;;;;18.30;12.15;;;19.30;99.90;;;;;;5013147;28;20491;-73
2021/07/17 05:25:37;;;;;;;22.48;11.93;;;19.40;99.90;;;;;;5011857;28;20052;-74
2021/07/17 05:28:03;;;;;;;20.63;12.25;;;19.40;99.90;;;;;;5013376;28;20444;-74
2021/07/17 05:30:30;;;;;;;23.40;12.13;;;19.40;99.90;;;;;;5012082;28;20562;-74
2021/07/17 05:32:56;;;;;;;18.25;11.35;;;19.50;99.90;;;;;;4995743;28;20073;-74
2021/07/17 05:35:22;;;;;;;17.30;11.70;;;19.50;99.90;;;;;;5012971;28;20112;-74
2021/07/17 05:37:48;;;;;;;18.00;11.60;;;19.50;99.90;;;;;;5011994;28;20164;-74
2021/07/17 05:40:15;;;;;;;15.25;10.38;;;19.60;99.90;;;;;;5012039;28;20056;-74
2021/07/17 05:42:41;;;;;;;19.38;11.77;;;19.60;99.90;;;;;;5011672;28;20443;-74
2021/07/17 05:45:07;;;;;;;15.43;10.23;;;19.70;99.90;;;;;;5011640;28;20029;-74
2021/07/17 05:47:33;;;;;;;15.57;10.15;;;19.70;99.90;;;;;;5012836;28;20033;-72
2021/07/17 05:49:59;;;;;;;16.00;10.13;;;19.60;99.90;;;;;;5011932;28;20042;-73
2021/07/17 05:52:24;;;;;;;18.77;9.68;;;19.70;99.90;;;;;;5011548;28;20029;-72
2021/07/17 05:54:50;;;;;;;14.85;8.82;;;19.80;99.90;;;;;;5013057;28;20096;-73
2021/07/17 05:57:16;;;;;;;13.70;9.82;;;19.80;99.90;;;;;;5012858;28;20026;-73
2021/07/17 05:59:42;;;;;;;19.85;10.38;;;19.90;99.90;;;;;;5011814;28;20037;-73
2021/07/17 06:02:08;;;;;;;17.52;8.85;;;19.90;99.90;;;;;;5012909;28;20034;-73
2021/07/17 06:04:34;;;;;;;15.57;9.32;;;20.00;99.90;;;;;;5012834;28;20034;-73
2021/07/17 06:07:00;;;;;;;17.02;9.50;;;20.00;99.90;;;;;;5012599;28;20382;-73
2021/07/17 06:09:26;;;;;;;21.27;9.77;;;20.00;99.90;;;;;;5011214;28;20030;-74
2021/07/17 06:11:52;;;;;;;12.85;8.82;;;20.00;99.90;;;;;;5012620;28;20099;-73
2021/07/17 06:14:17;;;;;;;15.77;9.00;;;20.00;99.90;;;;;;5011502;28;20033;-73
2021/07/17 06:16:44;;;;;;;13.90;8.80;;;20.00;99.90;;;;;;5012563;28;20117;-74
2021/07/17 06:19:11;;;;;;;16.45;9.23;;;20.10;99.90;;;;;;5012700;28;20030;-74
2021/07/17 06:21:38;;;;;;;15.27;8.85;;;20.00;99.90;;;;;;5012377;28;20032;-73
2021/07/17 06:24:05;;;;;;;14.02;8.25;;;20.00;99.90;;;;;;5012659;28;20064;-73
2021/07/17 06:26:31;;;;;;;12.00;8.52;;;20.00;99.90;;;;;;5012092;28;20041;-73
2021/07/17 06:28:57;;;;;;;18.25;9.75;;;20.10;99.90;;;;;;5012514;28;20128;-73
2021/07/17 06:31:23;;;;;;;19.60;8.75;;;20.10;99.90;;;;;;5011966;28;20108;-73
2021/07/17 06:33:49;;;;;;;13.02;8.57;;;20.30;99.90;;;;;;5012264;28;20042;-73
2021/07/17 06:36:16;;;;;;;14.68;8.65;;;20.30;99.90;;;;;;5011984;28;20463;-73
2021/07/17 06:38:43;;;;;;;15.52;8.60;;;20.30;99.90;;;;;;5010917;28;20045;-73
2021/07/17 06:41:09;;;;;;;14.23;8.43;;;20.20;99.90;;;;;;5011409;28;20069;-73
2021/07/17 06:43:36;;;;;;;15.18;7.82;;;20.30;99.90;;;;;;5011117;28;20112;-74
2021/07/17 06:46:03;;;;;;;14.07;9.00;;;20.20;99.90;;;;;;5012108;28;20061;-73
2021/07/17 06:48:30;;;;;;;16.65;8.70;;;20.30;99.90;;;;;;5012334;28;20042;-73
2021/07/17 06:50:56;;;;;;;18.27;9.07;;;20.20;99.90;;;;;;5010862;28;20497;-73
2021/07/17 06:53:21;;;;;;;17.73;8.68;;;20.40;99.90;;;;;;5012256;28;20104;-73
2021/07/17 06:55:48;;;;;;;12.68;7.65;;;20.50;99.90;;;;;;5012360;28;20033;-73
2021/07/17 06:58:13;;;;;;;13.30;7.22;;;20.60;99.90;;;;;;5027295;28;20090;-73
2021/07/17 07:00:39;;;;;;;15.75;8.30;;;20.70;99.90;;;;;;5012304;28;20479;-73
2021/07/17 07:03:05;;;;;;;12.30;7.82;;;20.70;99.90;;;;;;5012049;28;20043;-73
2021/07/17 07:05:32;;;;;;;16.05;8.35;;;20.70;99.90;;;;;;4994329;28;20430;-72
2021/07/17 07:07:58;;;;;;;11.38;7.00;;;20.80;99.90;;;;;;5011991;28;20112;-73
2021/07/17 07:10:24;;;;;;;11.60;7.78;;;20.90;99.90;;;;;;5010968;28;20436;-72
2021/07/17 07:12:50;;;;;;;11.98;7.18;;;20.80;99.90;;;;;;5011816;28;20046;-72
2021/07/17 07:15:16;;;;;;;15.98;8.13;;;20.60;99.90;;;;;;5010932;28;20036;-73
2021/07/17 07:17:43;;;;;;;13.10;9.05;;;20.70;99.90;;;;;;5012137;28;20382;-73
2021/07/17 07:20:11;;;;;;;18.45;8.70;;;20.70;99.90;;;;;;5010505;28;20476;-72
2021/07/17 07:22:37;;;;;;;17.35;8.23;;;20.70;99.90;;;;;;5010844;28;20381;-73
2021/07/17 07:25:05;;;;;;;13.52;7.25;;;20.70;99.90;;;;;;5012107;28;20076;-73
2021/07/17 07:27:31;;;;;;;14.93;7.35;;;20.70;99.90;;;;;;5010312;28;20030;-73
2021/07/17 07:29:57;;;;;;;16.33;7.30;;;20.80;99.90;;;;;;5012064;28;20038;-72
2021/07/17 07:32:22;;;;;;;14.65;7.03;;;20.80;99.90;;;;;;5026924;28;20084;-72
2021/07/17 07:34:48;;;;;;;13.25;6.85;;;20.90;99.90;;;;;;5012044;28;20037;-72
2021/07/17 07:37:14;;;;;;;13.05;7.90;;;20.90;99.90;;;;;;5012036;28;20069;-72
2021/07/17 07:39:41;;;;;;;11.88;7.75;;;20.90;99.90;;;;;;5010505;28;20034;-72
2021/07/17 07:42:06;;;;;;;16.73;7.75;;;20.90;99.90;;;;;;5010489;28;20386;-72
2021/07/17 07:44:33;;;;;;;15.23;8.00;;;20.90;99.90;;;;;;5013154;28;20037;-73
2021/07/17 07:46:59;;;;;;;12.63;7.00;;;20.80;99.90;;;;;;5015245;28;20022;-74
2021/07/17 07:49:24;;;;;;;11.73;6.47;;;20.90;99.90;;;;;;5013841;28;20075;-73
2021/07/17 07:51:50;;;;;;;12.32;6.80;;;20.90;99.90;;;;;;5013783;28;20034;-74
2021/07/17 07:54:16;;;;;;;11.02;6.50;;;20.90;99.90;;;;;;5014953;28;20038;-74
2021/07/17 07:56:42;;;;;;;12.57;7.50;;;20.80;99.90;;;;;;5013713;28;20410;-74
2021/07/17 07:59:08;;;;;;;17.05;7.25;;;20.70;99.90;;;;;;5013667;28;20050;-74
2021/07/17 08:01:34;;;;;;;17.73;8.40;;;20.70;99.90;;;;;;5015015;28;20459;-74
2021/07/17 08:04:02;;;;;;;14.00;6.78;;;20.60;99.90;;;;;;5014981;28;20036;-74
2021/07/17 08:06:27;;;;;;;14.77;7.20;;;20.50;99.90;;;;;;5014586;28;20034;-74
2021/07/17 08:08:53;;;;;;;13.90;7.72;;;20.60;99.90;;;;;;5014503;28;20084;-74
2021/07/17 08:11:19;;;;;;;12.73;6.82;;;20.60;99.90;;;;;;5015012;28;20058;-74
2021/07/17 08:13:44;;;;;;;14.80;6.93;;;20.70;99.90;;;;;;5012983;28;20487;-74
2021/07/17 08:16:10;;;;;;;10.77;7.10;;;20.70;99.90;;;;;;5013594;28;20076;-74
2021/07/17 08:18:36;;;;;;;15.65;7.75;;;20.80;99.90;;;;;;5014658;28;20041;-74
2021/07/17 08:21:02;;;;;;;14.63;8.13;;;20.80;99.90;;;;;;5014520;28;20030;-74
2021/07/17 08:23:27;;;;;;;13.02;7.72;;;20.70;99.90;;;;;;5014531;28;20041;-74
2021/07/17 08:25:54;;;;;;;14.38;7.80;;;20.80;99.90;;;;;;5029729;28;20030;-74
2021/07/17 08:28:19;;;;;;;13.90;7.57;;;20.90;99.90;;;;;;5013326;28;20034;-74
2021/07/17 08:30:45;;;;;;;11.48;6.80;;;20.90;99.90;;;;;;5013343;28;20037;-74
2021/07/17 08:33:11;;;;;;;14.30;6.93;;;20.90;99.90;;;;;;5013306;28;20026;-75
2021/07/17 08:35:37;;;;;;;10.98;6.60;;;20.90;99.90;;;;;;5013836;28;20079;-74
2021/07/17 08:38:03;;;;;;;9.32;6.38;;;20.90;99.90;;;;;;5014372;28;20468;-75
2021/07/17 08:40:29;;;;;;;12.52;7.30;;;21.00;99.90;;;;;;5012991;28;20042;-74
2021/07/17 08:42:55;;;;;;;11.90;6.50;;;20.90;99.90;;;;;;5012932;28;20395;-74
2021/07/17 08:45:23;;;;;;;10.20;5.50;;;20.90;99.90;;;;;;5014363;28;20061;-74
2021/07/17 08:47:51;;;;;;;12.50;5.78;;;20.90;99.90;;;;;;5014158;28;20128;-74
2021/07/17 08:50:24;;;;;;;14.50;6.60;;;21.00;99.90;;;;;;5013926;28;20037;-75
2021/07/17 08:52:58;;;;;;;10.50;6.13;;;21.00;99.90;;;;;;5014130;28;20038;-74
2021/07/17 08:55:29;;;;;;;10.40;5.82;;;21.10;99.90;;;;;;5012502;28;20108;-75
2021/07/17 08:57:55;;;;;;;9.35;5.82;;;21.10;99.90;;;;;;5012591;28;20041;-74
2021/07/17 09:00:35;;;;;;;8.75;5.32;;;21.10;99.90;;;;;;5014070;28;20128;-75
2021/07/17 09:03:08;;;;;;;10.07;5.88;;;21.30;99.90;;;;;;5012497;28;20495;-74
2021/07/17 09:05:42;;;;;;;9.55;5.57;;;21.40;99.90;;;;;;5012490;28;20034;-74
2021/07/17 09:08:10;;;;;;;11.90;5.93;;;21.60;99.90;;;;;;5012477;28;20045;-74
2021/07/17 09:10:47;;;;;;;10.55;5.72;;;21.70;99.90;;;;;;5012221;28;20026;-74
2021/07/17 09:13:30;;;;;;;12.35;5.28;;;21.80;99.90;;;;;;5013412;28;20049;-74
2021/07/17 09:16:12;;;;;;;12.50;5.18;;;21.80;99.90;;;;;;5012815;28;20117;-75
2021/07/17 09:18:51;;;;;;;8.13;5.15;;;21.90;99.90;;;;;;5012192;28;20041;-74
2021/07/17 09:21:37;;;;;;;7.78;4.72;;;22.10;99.90;;;;;;5012193;28;20033;-74
2021/07/17 09:24:08;;;;;;;8.27;4.80;;;22.30;99.90;;;;;;5013657;28;20065;-74
2021/07/17 09:26:41;;;;;;;10.68;4.90;;;22.50;99.90;;;;;;5013163;28;20022;-75
2021/07/17 09:29:12;;;;;;;11.38;5.57;;;22.60;99.90;;;;;;5012126;28;20490;-74
2021/07/17 09:31:55;;;;;;;8.88;4.68;;;22.80;99.90;;;;;;5013260;28;20034;-74
2021/07/17 09:34:29;;;;;;;11.23;5.35;;;22.70;99.90;;;;;;5012168;28;20541;-75
2021/07/17 09:37:11;;;;;;;10.77;5.22;;;22.90;99.90;;;;;;5011851;28;20045;-74
2021/07/17 09:39:40;;;;;;;8.40;5.40;;;22.80;99.90;;;;;;5012845;28;20124;-74
2021/07/17 09:42:11;;;;;;;8.68;4.68;;;23.00;99.90;;;;;;5028233;28;20084;-74
2021/07/17 09:44:37;;;;;;;;;;;23.10;99.90;;;;;;5013327;28;20078;-74
2021/07/17 09:47:15;;;;;;;8.70;4.65;;;23.10;99.90;;;;;;5013006;28;19948;-74
2021/07/17 09:49:41;;;;;;;10.63;5.57;;;22.90;99.90;;;;;;5011815;28;20034;-75
2021/07/17 09:52:16;;;;;;;11.60;5.10;;;22.80;99.90;;;;;;5011769;28;20538;-75
2021/07/17 09:55:11;;;;;;;7.45;4.63;;;22.70;99.90;;;;;;5011965;28;20033;-75
2021/07/17 09:57:38;;;;;;;7.32;4.63;;;22.70;99.90;;;;;;5012568;28;20038;-74
2021/07/17 10:00:19;;;;;;;10.75;5.78;;;22.60;99.90;;;;;;5011687;28;20038;-74
2021/07/17 10:02:46;;;;;;;8.90;5.25;;;22.80;99.90;;;;;;5012869;28;20037;-74
2021/07/17 10:05:17;;;;;;;9.20;5.10;;;22.80;99.90;;;;;;5011284;28;20056;-74
2021/07/17 10:07:44;;;;;;;9.10;5.43;;;22.90;99.90;;;;;;4994444;28;20387;-74
2021/07/17 10:10:10;;;;;;;7.50;5.05;;;23.00;99.90;;;;;;5012565;28;20026;-75
2021/07/17 10:12:42;;;;;;;8.63;5.03;;;23.00;99.90;;;;;;5010940;28;20586;-74
2021/07/17 10:15:15;;;;;;;9.20;5.10;;;23.00;99.90;;;;;;5012483;28;20427;-74
2021/07/17 10:17:44;;;;;;;10.18;6.03;;;23.20;99.90;;;;;;5011016;28;20041;-74
2021/07/17 10:20:14;;;;;;;8.73;5.00;;;23.30;99.90;;;;;;5012603;28;20042;-74
2021/07/17 10:22:41;;;;;;;11.10;5.38;;;23.50;99.90;;;;;;5012250;28;20034;-74
2021/07/17 10:25:10;;;;;;;6.70;4.15;;;23.50;99.90;;;;;;5012633;28;20505;-74
2021/07/17 10:27:36;;;;;;;11.35;6.05;;;23.70;99.90;;;;;;4994814;28;20533;-74
2021/07/17 10:30:08;;;;;;;8.60;5.07;;;23.70;99.90;;;;;;5012623;28;20030;-74
2021/07/17 10:32:34;;;;;;;7.47;5.10;;;23.60;99.90;;;;;;5012172;28;20088;-74
2021/07/17 10:35:00;;;;;;;9.35;4.88;;;23.70;99.90;;;;;;5011064;28;20030;-74
2021/07/17 10:37:34;;;;;;;15.23;5.78;;;23.80;99.90;;;;;;5012565;28;20037;-74
2021/07/17 10:40:15;;;;;;;8.52;4.82;;;23.90;99.90;;;;;;5011026;28;20044;-74
2021/07/17 10:42:55;;;;;;;9.32;5.32;;;24.00;99.90;;;;;;5010984;28;20038;-75
2021/07/17 10:45:43;;;;;;;13.25;5.18;;;23.70;99.90;;;;;;5011002;28;20482;-75
2021/07/17 10:48:34;;;;;;;10.27;4.75;;;24.00;99.90;;;;;;5010981;28;20463;-74
2021/07/17 10:51:23;;;;;;;17.17;11.30;;;24.40;99.90;;;;;;5010629;28;20084;-80
2021/07/17 10:53:54;;;;;;;6.97;3.78;;;25.00;99.90;;;;;;5012138;28;20038;-72
2021/07/17 10:56:29;;;;;;;;;;;25.10;99.90;;;;;;5012829;28;20394;-70
2021/07/17 10:59:30;;;;;;;9.18;4.35;;;25.00;99.90;;;;;;5011814;28;19967;-79
2021/07/17 11:02:00;;;;;;;11.75;4.68;;;24.80;99.90;;;;;;5011321;28;20038;-72
2021/07/17 11:04:49;;;;;;;7.53;4.65;;;24.80;99.90;;;;;;5020036;28;20112;-68
2021/07/17 11:07:17;;;;;;;8.88;4.70;;;24.70;99.90;;;;;;5021654;28;20030;-68
2021/07/17 11:10:05;;;;;;;11.70;5.35;;;24.90;99.90;;;;;;5020400;28;20034;-69
2021/07/17 11:12:47;;;;;;;7.13;4.70;;;25.10;99.90;;;;;;5018217;28;20046;-69
2021/07/17 11:15:13;;;;;;;7.13;4.70;;;24.90;99.90;;;;;;5010563;28;20391;-71
2021/07/17 11:17:48;;;;;;;8.27;5.50;;;25.30;99.90;;;;;;5011912;28;20057;-69
2021/07/17 11:20:36;;;;;;;7.97;4.47;;;25.50;99.90;;;;;;5015542;28;20038;-68
2021/07/17 11:23:17;;;;;;;10.68;4.68;;;25.80;99.90;;;;;;5015798;28;20038;-68
2021/07/17 11:25:57;;;;;;;7.20;5.32;;;25.60;99.90;;;;;;5015557;28;20037;-69
2021/07/17 11:28:52;;;;;;;10.20;4.83;;;25.50;99.90;;;;;;5015532;28;20040;-69
2021/07/17 11:31:27;;;;;;;9.88;5.85;;;25.50;99.90;;;;;;5014054;28;20491;-68
2021/07/17 11:34:14;;;;;;;7.88;4.82;;;25.50;99.90;;;;;;5023041;28;20059;-69
2021/07/17 11:36:46;;;;;;;6.53;4.70;;;25.60;99.90;;;;;;5028853;28;20646;-71
2021/07/17 11:39:18;;;;;;;13.43;4.95;;;25.60;99.90;;;;;;5034090;28;20046;-69
2021/07/17 11:41:44;;;;;;;10.63;5.30;;;25.90;99.90;;;;;;5036683;28;20025;-69
2021/07/17 11:44:13;;;;;;;14.82;5.65;;;26.10;99.90;;;;;;5035639;28;20475;-67
2021/07/17 11:47:00;;;;;;;9.75;4.57;;;26.30;99.90;;;;;;5034977;28;20034;-68
2021/07/17 11:49:35;;;;;;;9.40;5.25;;;26.50;99.90;;;;;;5034973;28;20037;-68
2021/07/17 11:52:05;;;;;;;11.20;5.50;;;26.30;99.90;;;;;;5033902;28;20025;-72
2021/07/17 11:54:38;;;;;;;;;;;26.20;99.90;;;;;;5035392;28;20037;-68
2021/07/17 11:57:11;;;;;;;10.98;5.80;;;26.00;99.90;;;;;;5035319;28;19913;-71
2021/07/17 11:59:42;;;;;;;14.65;8.00;;;25.90;99.90;;;;;;5034796;28;20037;-71
2021/07/17 12:02:14;;;;;;;14.80;5.78;;;25.70;99.90;;;;;;5035053;28;20021;-69
2021/07/17 12:04:50;;;;;;;10.77;5.93;;;25.80;99.90;;;;;;5034617;28;20075;-72
2021/07/17 12:07:31;;;;;;;10.95;6.25;;;26.00;99.90;;;;;;5034480;28;20355;-69
2021/07/17 12:10:07;;;;;;;11.90;6.68;;;26.10;99.90;;;;;;5034481;28;20045;-68
2021/07/17 12:12:53;;;;;;;11.23;6.20;;;26.30;99.90;;;;;;5033197;28;20037;-68
2021/07/17 12:15:33;;;;;;;13.70;6.50;;;26.30;99.90;;;;;;5034644;28;20049;-68
2021/07/17 12:18:02;;;;;;;14.55;7.45;;;26.20;99.90;;;;;;5034393;28;20115;-68
2021/07/17 12:20:35;;;;;;;31.65;12.25;;;25.90;99.90;;;;;;5034028;28;20045;-69
2021/07/17 12:23:13;;;;;;;12.38;7.03;;;25.70;99.90;;;;;;5034336;28;20033;-69
2021/07/17 12:25:45;;;;;;;17.88;7.93;;;25.60;99.90;;;;;;5032822;28;20064;-68
2021/07/17 12:28:15;;;;;;;11.60;7.68;;;25.50;99.90;;;;;;5034294;28;20461;-68
2021/07/17 12:30:45;;;;;;;16.02;8.07;;;25.30;99.90;;;;;;5033720;28;20033;-67
2021/07/17 12:33:23;;;;;;;14.65;7.68;;;25.40;99.90;;;;;;5031069;28;20057;-68
2021/07/17 12:36:20;;;;;;;11.90;7.00;;;25.30;99.90;;;;;;5014138;28;20133;-69
2021/07/17 12:38:55;;;;;;;13.80;7.75;;;25.40;99.90;;;;;;5011912;28;20635;-68
2021/07/17 12:41:24;;;;;;;12.55;7.82;;;25.90;99.90;;;;;;5014463;28;20045;-69